sensor_id;sensor_type;location;lat;lon;timestamp;pressure;altitude;pressure_sealevel;temperature;humidity
69570;BME280;56781;42.292;23.146;2023-02-28T00:01:18;95991.72;;;6.67;100.00
69570;BME280;56781;42.292;23.146;2023-02-28T00:03:45;95969.31;;;6.42;100.00
69570;BME280;56781;42.292;23.146;2023-02-28T00:06:12;95972.78;;;6.43;100.00
69570;BME280;56781;42.292;23.146;2023-02-28T00:08:39;96007.16;;;6.60;100.00
69570;BME280;56781;42.292;23.146;2023-02-28T00:11:09;95994.84;;;6.49;100.00
69570;BME280;56781;42.292;23.146;2023-02-28T00:13:39;95987.69;;;6.49;100.00
69570;BME280;56781;42.292;23.146;2023-02-28T00:16:12;96010.91;;;6.79;100.00
69570;BME280;56781;42.292;23.146;2023-02-28T00:18:40;95974.94;;;6.61;100.00
69570;BME280;56781;42.292;23.146;2023-02-28T00:21:08;96015.44;;;6.79;100.00
69570;BME280;56781;42.292;23.146;2023-02-28T00:23:36;95997.03;;;6.57;100.00
69570;BME280;56781;42.292;23.146;2023-02-28T00:26:03;95989.31;;;6.55;100.00
69570;BME280;56781;42.292;23.146;2023-02-28T00:28:31;96005.81;;;6.57;100.00
69570;BME280;56781;42.292;23.146;2023-02-28T00:30:58;95993.31;;;6.58;100.00
69570;BME280;56781;42.292;23.146;2023-02-28T00:33:27;95986.13;;;6.58;100.00
69570;BME280;56781;42.292;23.146;2023-02-28T00:36:03;95981.56;;;6.54;100.00
69570;BME280;56781;42.292;23.146;2023-02-28T00:38:30;96019.66;;;6.75;100.00
69570;BME280;56781;42.292;23.146;2023-02-28T00:40:57;95998.09;;;6.61;100.00
69570;BME280;56781;42.292;23.146;2023-02-28T00:43:25;95982.38;;;6.44;100.00
69570;BME280;56781;42.292;23.146;2023-02-28T00:45:52;95981.03;;;6.41;100.00
69570;BME280;56781;42.292;23.146;2023-02-28T00:48:19;95990.31;;;6.39;100.00
69570;BME280;56781;42.292;23.146;2023-02-28T00:50:48;96023.34;;;6.53;100.00
69570;BME280;56781;42.292;23.146;2023-02-28T00:53:16;95986.59;;;6.30;100.00
69570;BME280;56781;42.292;23.146;2023-02-28T00:55:43;96015.38;;;6.58;100.00
69570;BME280;56781;42.292;23.146;2023-02-28T00:58:10;95988.22;;;6.41;100.00
69570;BME280;56781;42.292;23.146;2023-02-28T01:00:37;95991.06;;;6.29;100.00
69570;BME280;56781;42.292;23.146;2023-02-28T01:03:04;95994.56;;;6.30;100.00
69570;BME280;56781;42.292;23.146;2023-02-28T01:05:31;95997.94;;;6.15;100.00
69570;BME280;56781;42.292;23.146;2023-02-28T01:07:59;96014.13;;;6.13;100.00
69570;BME280;56781;42.292;23.146;2023-02-28T01:10:27;95982.59;;;5.80;100.00
69570;BME280;56781;42.292;23.146;2023-02-28T01:12:58;95987.81;;;5.64;100.00
69570;BME280;56781;42.292;23.146;2023-02-28T01:15:25;95995.09;;;5.42;100.00
69570;BME280;56781;42.292;23.146;2023-02-28T01:17:52;95987.16;;;5.42;100.00
69570;BME280;56781;42.292;23.146;2023-02-28T01:20:19;95985.84;;;5.44;100.00
69570;BME280;56781;42.292;23.146;2023-02-28T01:22:46;96018.66;;;5.65;100.00
69570;BME280;56781;42.292;23.146;2023-02-28T01:25:13;95979.22;;;5.47;100.00
69570;BME280;56781;42.292;23.146;2023-02-28T01:27:41;95969.63;;;5.41;100.00
69570;BME280;56781;42.292;23.146;2023-02-28T01:30:09;95980.41;;;5.29;100.00
69570;BME280;56781;42.292;23.146;2023-02-28T01:32:37;96004.66;;;5.38;100.00
69570;BME280;56781;42.292;23.146;2023-02-28T01:35:04;95977.63;;;5.08;100.00
69570;BME280;56781;42.292;23.146;2023-02-28T01:37:31;96010.44;;;5.29;100.00
69570;BME280;56781;42.292;23.146;2023-02-28T01:39:58;96001.81;;;5.17;100.00
69570;BME280;56781;42.292;23.146;2023-02-28T01:42:26;95972.41;;;4.86;100.00
69570;BME280;56781;42.292;23.146;2023-02-28T01:45:16;96006.53;;;5.05;100.00
69570;BME280;56781;42.292;23.146;2023-02-28T01:47:45;95977.16;;;4.84;100.00
69570;BME280;56781;42.292;23.146;2023-02-28T01:50:19;95979.00;;;4.84;100.00
69570;BME280;56781;42.292;23.146;2023-02-28T01:52:48;95977.75;;;4.92;100.00
69570;BME280;56781;42.292;23.146;2023-02-28T01:55:18;95971.66;;;4.96;100.00
69570;BME280;56781;42.292;23.146;2023-02-28T01:57:50;95974.53;;;4.89;100.00
69570;BME280;56781;42.292;23.146;2023-02-28T02:00:22;95989.50;;;5.01;100.00
69570;BME280;56781;42.292;23.146;2023-02-28T02:02:53;95978.22;;;4.88;100.00
69570;BME280;56781;42.292;23.146;2023-02-28T02:05:25;95972.63;;;4.85;100.00
69570;BME280;56781;42.292;23.146;2023-02-28T02:07:56;95984.31;;;4.84;100.00
69570;BME280;56781;42.292;23.146;2023-02-28T02:10:41;95965.13;;;4.77;100.00
69570;BME280;56781;42.292;23.146;2023-02-28T02:13:37;95996.78;;;4.83;100.00
69570;BME280;56781;42.292;23.146;2023-02-28T02:19:33;95990.00;;;4.71;100.00
69570;BME280;56781;42.292;23.146;2023-02-28T02:22:25;95997.19;;;4.70;100.00
69570;BME280;56781;42.292;23.146;2023-02-28T02:28:09;96019.34;;;4.59;100.00
69570;BME280;56781;42.292;23.146;2023-02-28T02:31:03;95992.34;;;4.18;100.00
69570;BME280;56781;42.292;23.146;2023-02-28T02:36:19;96010.16;;;4.00;100.00
69570;BME280;56781;42.292;23.146;2023-02-28T02:41:41;96002.44;;;3.77;100.00
69570;BME280;56781;42.292;23.146;2023-02-28T02:44:26;95975.78;;;3.84;100.00
69570;BME280;56781;42.292;23.146;2023-02-28T02:46:59;96010.22;;;4.06;100.00
69570;BME280;56781;42.292;23.146;2023-02-28T02:49:31;96041.09;;;4.17;100.00
69570;BME280;56781;42.292;23.146;2023-02-28T02:52:03;96012.88;;;4.06;100.00
69570;BME280;56781;42.292;23.146;2023-02-28T02:54:37;96051.09;;;4.32;100.00
69570;BME280;56781;42.292;23.146;2023-02-28T02:57:10;96047.59;;;4.26;100.00
69570;BME280;56781;42.292;23.146;2023-02-28T02:59:40;96043.75;;;4.17;100.00
69570;BME280;56781;42.292;23.146;2023-02-28T03:02:12;96008.81;;;3.59;100.00
69570;BME280;56781;42.292;23.146;2023-02-28T03:04:46;96016.06;;;3.30;100.00
69570;BME280;56781;42.292;23.146;2023-02-28T03:07:15;96022.94;;;3.14;100.00
69570;BME280;56781;42.292;23.146;2023-02-28T03:09:52;96025.03;;;2.95;100.00
69570;BME280;56781;42.292;23.146;2023-02-28T03:12:20;96010.78;;;3.13;100.00
69570;BME280;56781;42.292;23.146;2023-02-28T03:15:26;96005.47;;;3.30;100.00
69570;BME280;56781;42.292;23.146;2023-02-28T03:18:04;96040.13;;;3.45;100.00
69570;BME280;56781;42.292;23.146;2023-02-28T03:20:54;96074.13;;;3.53;100.00
69570;BME280;56781;42.292;23.146;2023-02-28T03:26:21;96052.00;;;2.52;100.00
69570;BME280;56781;42.292;23.146;2023-02-28T03:29:23;96077.56;;;2.75;100.00
69570;BME280;56781;42.292;23.146;2023-02-28T03:32:10;96081.47;;;2.72;100.00
69570;BME280;56781;42.292;23.146;2023-02-28T03:34:46;96090.00;;;2.62;100.00
69570;BME280;56781;42.292;23.146;2023-02-28T03:37:20;96061.72;;;2.63;100.00
69570;BME280;56781;42.292;23.146;2023-02-28T03:39:56;96094.91;;;2.99;100.00
69570;BME280;56781;42.292;23.146;2023-02-28T03:42:27;96057.22;;;2.92;100.00
69570;BME280;56781;42.292;23.146;2023-02-28T03:44:59;96074.84;;;3.15;100.00
69570;BME280;56781;42.292;23.146;2023-02-28T03:50:35;96053.25;;;3.06;100.00
69570;BME280;56781;42.292;23.146;2023-02-28T03:53:13;96041.25;;;3.16;100.00
69570;BME280;56781;42.292;23.146;2023-02-28T03:55:50;96036.91;;;3.09;100.00
69570;BME280;56781;42.292;23.146;2023-02-28T04:01:04;96048.28;;;3.27;100.00
69570;BME280;56781;42.292;23.146;2023-02-28T04:03:38;96058.78;;;3.22;100.00
69570;BME280;56781;42.292;23.146;2023-02-28T04:06:07;96040.59;;;3.08;100.00
69570;BME280;56781;42.292;23.146;2023-02-28T04:08:39;96046.84;;;3.19;100.00
69570;BME280;56781;42.292;23.146;2023-02-28T04:11:20;96049.41;;;3.31;100.00
69570;BME280;56781;42.292;23.146;2023-02-28T04:13:49;96069.84;;;3.19;100.00
69570;BME280;56781;42.292;23.146;2023-02-28T04:16:16;96058.22;;;3.20;100.00
69570;BME280;56781;42.292;23.146;2023-02-28T04:18:59;96081.81;;;3.55;100.00
69570;BME280;56781;42.292;23.146;2023-02-28T04:21:29;96059.69;;;3.44;100.00
69570;BME280;56781;42.292;23.146;2023-02-28T04:23:57;96076.03;;;3.41;100.00
69570;BME280;56781;42.292;23.146;2023-02-28T04:26:32;96086.47;;;3.48;100.00
69570;BME280;56781;42.292;23.146;2023-02-28T04:29:00;96074.28;;;3.30;100.00
69570;BME280;56781;42.292;23.146;2023-02-28T04:31:28;96066.91;;;3.32;100.00
69570;BME280;56781;42.292;23.146;2023-02-28T04:33:56;96056.94;;;3.39;100.00
69570;BME280;56781;42.292;23.146;2023-02-28T04:36:23;96089.59;;;3.62;100.00
69570;BME280;56781;42.292;23.146;2023-02-28T04:38:51;96086.72;;;3.46;100.00
69570;BME280;56781;42.292;23.146;2023-02-28T04:41:19;96061.84;;;3.47;100.00
69570;BME280;56781;42.292;23.146;2023-02-28T04:43:46;96078.84;;;3.51;100.00
69570;BME280;56781;42.292;23.146;2023-02-28T04:46:13;96077.31;;;3.72;100.00
69570;BME280;56781;42.292;23.146;2023-02-28T04:48:41;96089.00;;;3.93;100.00
69570;BME280;56781;42.292;23.146;2023-02-28T04:51:11;96061.59;;;3.66;100.00
69570;BME280;56781;42.292;23.146;2023-02-28T04:53:39;96060.81;;;3.48;100.00
69570;BME280;56781;42.292;23.146;2023-02-28T04:56:09;96070.13;;;3.34;100.00
69570;BME280;56781;42.292;23.146;2023-02-28T04:58:37;96078.53;;;3.48;100.00
69570;BME280;56781;42.292;23.146;2023-02-28T05:01:07;96068.66;;;3.43;100.00
69570;BME280;56781;42.292;23.146;2023-02-28T05:03:42;96101.78;;;3.63;100.00
69570;BME280;56781;42.292;23.146;2023-02-28T05:06:10;96073.56;;;3.51;100.00
69570;BME280;56781;42.292;23.146;2023-02-28T05:08:38;96071.63;;;3.64;100.00
69570;BME280;56781;42.292;23.146;2023-02-28T05:11:12;96067.16;;;3.64;100.00
69570;BME280;56781;42.292;23.146;2023-02-28T05:13:40;96080.03;;;3.61;100.00
69570;BME280;56781;42.292;23.146;2023-02-28T05:16:07;96073.72;;;3.62;100.00
69570;BME280;56781;42.292;23.146;2023-02-28T05:18:34;96105.25;;;3.80;100.00
69570;BME280;56781;42.292;23.146;2023-02-28T05:21:02;96074.59;;;3.67;100.00
69570;BME280;56781;42.292;23.146;2023-02-28T05:23:29;96083.56;;;3.83;100.00
69570;BME280;56781;42.292;23.146;2023-02-28T05:25:57;96081.06;;;3.76;100.00
69570;BME280;56781;42.292;23.146;2023-02-28T05:28:24;96106.66;;;3.88;100.00
69570;BME280;56781;42.292;23.146;2023-02-28T05:30:51;96126.72;;;4.00;100.00
69570;BME280;56781;42.292;23.146;2023-02-28T05:33:18;96117.47;;;4.03;100.00
69570;BME280;56781;42.292;23.146;2023-02-28T05:35:45;96104.16;;;3.98;100.00
69570;BME280;56781;42.292;23.146;2023-02-28T05:38:12;96113.41;;;3.95;100.00
69570;BME280;56781;42.292;23.146;2023-02-28T05:40:39;96093.34;;;3.83;100.00
69570;BME280;56781;42.292;23.146;2023-02-28T05:43:10;96124.25;;;3.94;100.00
69570;BME280;56781;42.292;23.146;2023-02-28T05:45:38;96153.97;;;4.18;100.00
69570;BME280;56781;42.292;23.146;2023-02-28T05:48:05;96144.88;;;3.92;100.00
69570;BME280;56781;42.292;23.146;2023-02-28T05:50:32;96152.50;;;4.05;100.00
69570;BME280;56781;42.292;23.146;2023-02-28T05:53:00;96147.41;;;4.04;100.00
69570;BME280;56781;42.292;23.146;2023-02-28T05:55:27;96135.69;;;4.16;100.00
69570;BME280;56781;42.292;23.146;2023-02-28T05:57:54;96152.03;;;4.30;100.00
69570;BME280;56781;42.292;23.146;2023-02-28T06:00:21;96147.69;;;4.41;100.00
69570;BME280;56781;42.292;23.146;2023-02-28T06:02:48;96142.69;;;4.44;100.00
69570;BME280;56781;42.292;23.146;2023-02-28T06:05:17;96143.09;;;4.36;100.00
69570;BME280;56781;42.292;23.146;2023-02-28T06:07:45;96164.31;;;4.75;100.00
69570;BME280;56781;42.292;23.146;2023-02-28T06:10:13;96175.66;;;4.93;100.00
69570;BME280;56781;42.292;23.146;2023-02-28T06:12:40;96147.91;;;4.78;100.00
69570;BME280;56781;42.292;23.146;2023-02-28T06:15:15;96178.84;;;4.95;100.00
69570;BME280;56781;42.292;23.146;2023-02-28T06:17:44;96127.19;;;4.75;100.00
69570;BME280;56781;42.292;23.146;2023-02-28T06:20:11;96146.69;;;5.13;100.00
69570;BME280;56781;42.292;23.146;2023-02-28T06:22:41;96163.81;;;5.27;100.00
69570;BME280;56781;42.292;23.146;2023-02-28T06:25:09;96167.84;;;5.30;100.00
69570;BME280;56781;42.292;23.146;2023-02-28T06:27:37;96172.19;;;5.41;100.00
69570;BME280;56781;42.292;23.146;2023-02-28T06:30:05;96180.78;;;5.53;100.00
69570;BME280;56781;42.292;23.146;2023-02-28T06:32:32;96198.34;;;5.82;100.00
69570;BME280;56781;42.292;23.146;2023-02-28T06:34:59;96157.38;;;5.77;100.00
69570;BME280;56781;42.292;23.146;2023-02-28T06:37:26;96162.53;;;5.89;100.00
69570;BME280;56781;42.292;23.146;2023-02-28T06:39:54;96175.91;;;5.99;100.00
69570;BME280;56781;42.292;23.146;2023-02-28T06:42:23;96195.19;;;6.17;100.00
69570;BME280;56781;42.292;23.146;2023-02-28T06:44:55;96151.81;;;5.47;100.00
69570;BME280;56781;42.292;23.146;2023-02-28T06:47:23;96146.69;;;5.67;100.00
69570;BME280;56781;42.292;23.146;2023-02-28T06:49:50;96177.50;;;6.33;100.00
69570;BME280;56781;42.292;23.146;2023-02-28T06:52:17;96167.66;;;6.33;100.00
69570;BME280;56781;42.292;23.146;2023-02-28T06:54:44;96157.66;;;6.08;100.00
69570;BME280;56781;42.292;23.146;2023-02-28T06:57:12;96187.63;;;6.36;100.00
69570;BME280;56781;42.292;23.146;2023-02-28T06:59:39;96178.13;;;6.50;100.00
69570;BME280;56781;42.292;23.146;2023-02-28T07:02:07;96172.91;;;6.65;100.00
69570;BME280;56781;42.292;23.146;2023-02-28T07:04:34;96163.78;;;6.56;100.00
69570;BME280;56781;42.292;23.146;2023-02-28T07:07:01;96179.44;;;6.48;100.00
69570;BME280;56781;42.292;23.146;2023-02-28T07:09:29;96159.19;;;6.41;100.00
69570;BME280;56781;42.292;23.146;2023-02-28T07:11:56;96181.78;;;6.02;100.00
69570;BME280;56781;42.292;23.146;2023-02-28T07:14:23;96154.13;;;5.38;100.00
69570;BME280;56781;42.292;23.146;2023-02-28T07:16:50;96157.16;;;5.52;100.00
69570;BME280;56781;42.292;23.146;2023-02-28T07:19:17;96148.28;;;5.68;100.00
69570;BME280;56781;42.292;23.146;2023-02-28T07:21:44;96153.81;;;5.94;100.00
69570;BME280;56781;42.292;23.146;2023-02-28T07:24:12;96150.13;;;5.95;100.00
69570;BME280;56781;42.292;23.146;2023-02-28T07:26:42;96147.84;;;6.14;100.00
69570;BME280;56781;42.292;23.146;2023-02-28T07:29:09;96150.56;;;6.19;100.00
69570;BME280;56781;42.292;23.146;2023-02-28T07:31:36;96163.53;;;6.15;100.00
69570;BME280;56781;42.292;23.146;2023-02-28T07:34:03;96147.38;;;5.90;100.00
69570;BME280;56781;42.292;23.146;2023-02-28T07:36:31;96148.81;;;6.40;100.00
69570;BME280;56781;42.292;23.146;2023-02-28T07:38:58;96163.50;;;6.10;100.00
69570;BME280;56781;42.292;23.146;2023-02-28T07:41:25;96173.63;;;6.13;100.00
69570;BME280;56781;42.292;23.146;2023-02-28T07:43:54;96143.19;;;5.94;100.00
69570;BME280;56781;42.292;23.146;2023-02-28T07:46:26;96163.13;;;6.81;100.00
69570;BME280;56781;42.292;23.146;2023-02-28T07:48:56;96155.19;;;6.39;100.00
69570;BME280;56781;42.292;23.146;2023-02-28T07:51:26;96152.31;;;6.51;100.00
69570;BME280;56781;42.292;23.146;2023-02-28T07:53:53;96158.22;;;6.58;100.00
69570;BME280;56781;42.292;23.146;2023-02-28T07:56:21;96160.97;;;6.78;100.00
69570;BME280;56781;42.292;23.146;2023-02-28T07:58:48;96168.06;;;7.25;100.00
69570;BME280;56781;42.292;23.146;2023-02-28T08:01:15;96164.06;;;7.23;100.00
69570;BME280;56781;42.292;23.146;2023-02-28T08:03:42;96148.09;;;7.38;100.00
69570;BME280;56781;42.292;23.146;2023-02-28T08:06:16;96136.69;;;7.53;100.00
69570;BME280;56781;42.292;23.146;2023-02-28T08:08:44;96145.50;;;7.79;100.00
69570;BME280;56781;42.292;23.146;2023-02-28T08:11:11;96141.19;;;8.29;100.00
69570;BME280;56781;42.292;23.146;2023-02-28T08:13:38;96139.25;;;8.65;100.00
69570;BME280;56781;42.292;23.146;2023-02-28T08:16:06;96155.00;;;8.67;100.00
69570;BME280;56781;42.292;23.146;2023-02-28T08:18:33;96152.88;;;8.69;99.65
69570;BME280;56781;42.292;23.146;2023-02-28T08:21:08;96148.25;;;9.45;99.16
69570;BME280;56781;42.292;23.146;2023-02-28T08:23:36;96157.34;;;9.44;94.33
69570;BME280;56781;42.292;23.146;2023-02-28T08:26:03;96131.56;;;9.63;96.24
69570;BME280;56781;42.292;23.146;2023-02-28T08:28:31;96145.00;;;10.21;92.27
69570;BME280;56781;42.292;23.146;2023-02-28T08:30:58;96132.53;;;10.07;92.13
69570;BME280;56781;42.292;23.146;2023-02-28T08:33:26;96142.22;;;10.61;90.65
69570;BME280;56781;42.292;23.146;2023-02-28T08:35:55;96144.09;;;10.02;92.95
69570;BME280;56781;42.292;23.146;2023-02-28T08:38:23;96143.25;;;9.72;94.05
69570;BME280;56781;42.292;23.146;2023-02-28T08:40:57;96177.16;;;9.38;97.34
69570;BME280;56781;42.292;23.146;2023-02-28T08:43:25;96142.03;;;9.10;97.88
69570;BME280;56781;42.292;23.146;2023-02-28T08:45:53;96144.41;;;9.17;97.82
69570;BME280;56781;42.292;23.146;2023-02-28T08:48:20;96150.09;;;9.00;99.95
69570;BME280;56781;42.292;23.146;2023-02-28T08:51:02;96133.72;;;9.12;98.91
69570;BME280;56781;42.292;23.146;2023-02-28T08:53:34;96127.56;;;8.36;100.00
69570;BME280;56781;42.292;23.146;2023-02-28T08:56:07;96141.75;;;8.41;100.00
69570;BME280;56781;42.292;23.146;2023-02-28T08:58:35;96174.28;;;8.18;100.00
69570;BME280;56781;42.292;23.146;2023-02-28T09:01:23;96179.88;;;8.11;100.00
69570;BME280;56781;42.292;23.146;2023-02-28T09:03:51;96159.06;;;8.29;100.00
69570;BME280;56781;42.292;23.146;2023-02-28T09:06:20;96155.59;;;8.54;100.00
69570;BME280;56781;42.292;23.146;2023-02-28T09:08:48;96157.69;;;8.62;100.00
69570;BME280;56781;42.292;23.146;2023-02-28T09:11:15;96170.06;;;9.18;100.00
69570;BME280;56781;42.292;23.146;2023-02-28T09:13:43;96136.28;;;8.82;100.00
69570;BME280;56781;42.292;23.146;2023-02-28T09:16:12;96148.13;;;9.21;100.00
69570;BME280;56781;42.292;23.146;2023-02-28T09:18:40;96163.66;;;9.08;99.27
69570;BME280;56781;42.292;23.146;2023-02-28T09:21:09;96134.00;;;9.15;98.35
69570;BME280;56781;42.292;23.146;2023-02-28T09:23:38;96166.28;;;9.19;97.67
69570;BME280;56781;42.292;23.146;2023-02-28T09:26:05;96158.41;;;9.48;96.00
69570;BME280;56781;42.292;23.146;2023-02-28T09:28:33;96129.88;;;9.77;98.18
69570;BME280;56781;42.292;23.146;2023-02-28T09:31:00;96126.59;;;9.46;94.57
69570;BME280;56781;42.292;23.146;2023-02-28T09:33:27;96150.50;;;10.01;94.99
69570;BME280;56781;42.292;23.146;2023-02-28T09:35:59;96130.03;;;10.20;93.51
69570;BME280;56781;42.292;23.146;2023-02-28T09:38:27;96119.25;;;10.26;93.00
69570;BME280;56781;42.292;23.146;2023-02-28T09:41:02;96087.66;;;10.33;93.24
69570;BME280;56781;42.292;23.146;2023-02-28T09:43:36;96120.34;;;10.30;87.97
69570;BME280;56781;42.292;23.146;2023-02-28T09:48:53;96110.34;;;10.06;90.25
69570;BME280;56781;42.292;23.146;2023-02-28T09:51:40;96122.69;;;10.84;90.08
69570;BME280;56781;42.292;23.146;2023-02-28T09:54:16;96124.78;;;11.49;86.49
69570;BME280;56781;42.292;23.146;2023-02-28T09:57:08;96103.41;;;11.44;87.61
69570;BME280;56781;42.292;23.146;2023-02-28T10:05:08;96080.44;;;11.00;86.12
69570;BME280;56781;42.292;23.146;2023-02-28T10:07:54;96105.75;;;11.32;87.74
69570;BME280;56781;42.292;23.146;2023-02-28T10:15:45;96069.50;;;11.53;87.06
69570;BME280;56781;42.292;23.146;2023-02-28T10:18:18;96069.28;;;11.31;86.05
69570;BME280;56781;42.292;23.146;2023-02-28T10:20:48;96066.59;;;10.93;87.08
69570;BME280;56781;42.292;23.146;2023-02-28T10:23:24;96070.06;;;11.83;86.04
69570;BME280;56781;42.292;23.146;2023-02-28T10:26:05;96059.03;;;12.04;82.89
69570;BME280;56781;42.292;23.146;2023-02-28T10:28:36;96054.38;;;12.37;82.69
69570;BME280;56781;42.292;23.146;2023-02-28T10:31:04;96042.84;;;12.09;87.60
69570;BME280;56781;42.292;23.146;2023-02-28T10:33:35;96047.13;;;12.37;83.74
69570;BME280;56781;42.292;23.146;2023-02-28T10:36:03;96038.19;;;12.28;87.38
69570;BME280;56781;42.292;23.146;2023-02-28T10:38:36;96036.41;;;12.51;87.83
69570;BME280;56781;42.292;23.146;2023-02-28T10:41:09;96023.59;;;12.98;80.42
69570;BME280;56781;42.292;23.146;2023-02-28T10:43:38;96048.78;;;12.89;83.03
69570;BME280;56781;42.292;23.146;2023-02-28T10:48:45;96012.19;;;12.79;81.12
69570;BME280;56781;42.292;23.146;2023-02-28T10:51:16;96029.63;;;12.81;82.11
69570;BME280;56781;42.292;23.146;2023-02-28T10:56:26;96022.16;;;13.28;75.73
69570;BME280;56781;42.292;23.146;2023-02-28T11:01:45;96002.47;;;13.05;77.44
69570;BME280;56781;42.292;23.146;2023-02-28T11:07:19;96019.84;;;12.85;78.54
69570;BME280;56781;42.292;23.146;2023-02-28T11:09:54;96003.34;;;12.78;77.63
69570;BME280;56781;42.292;23.146;2023-02-28T11:12:39;95969.13;;;12.70;79.05
69570;BME280;56781;42.292;23.146;2023-02-28T11:15:26;95985.47;;;12.60;76.86
69570;BME280;56781;42.292;23.146;2023-02-28T11:18:04;95994.03;;;12.48;79.30
69570;BME280;56781;42.292;23.146;2023-02-28T11:20:34;96003.88;;;12.39;79.51
69570;BME280;56781;42.292;23.146;2023-02-28T11:23:02;95985.78;;;12.31;81.73
69570;BME280;56781;42.292;23.146;2023-02-28T11:25:33;95966.50;;;12.15;79.90
69570;BME280;56781;42.292;23.146;2023-02-28T11:28:03;95983.50;;;12.10;81.67
69570;BME280;56781;42.292;23.146;2023-02-28T11:30:38;95978.94;;;12.11;80.55
69570;BME280;56781;42.292;23.146;2023-02-28T11:33:28;95991.44;;;12.29;81.75
69570;BME280;56781;42.292;23.146;2023-02-28T11:36:04;95983.47;;;11.96;81.95
69570;BME280;56781;42.292;23.146;2023-02-28T11:38:36;95981.31;;;12.12;81.21
69570;BME280;56781;42.292;23.146;2023-02-28T11:46:40;95986.28;;;11.72;79.91
69570;BME280;56781;42.292;23.146;2023-02-28T11:55:11;95962.72;;;11.56;81.16
69570;BME280;56781;42.292;23.146;2023-02-28T11:57:57;95968.94;;;11.70;80.90
69570;BME280;56781;42.292;23.146;2023-02-28T12:00:39;95970.88;;;11.97;80.91
69570;BME280;56781;42.292;23.146;2023-02-28T12:15:00;95950.25;;;11.65;81.18
69570;BME280;56781;42.292;23.146;2023-02-28T12:23:23;95959.88;;;11.66;81.43
69570;BME280;56781;42.292;23.146;2023-02-28T12:28:35;95941.59;;;11.21;80.52
69570;BME280;56781;42.292;23.146;2023-02-28T12:31:18;95945.56;;;11.57;81.93
69570;BME280;56781;42.292;23.146;2023-02-28T12:34:00;95931.84;;;11.12;80.64
69570;BME280;56781;42.292;23.146;2023-02-28T12:36:30;95946.53;;;11.47;80.05
69570;BME280;56781;42.292;23.146;2023-02-28T12:39:08;95951.19;;;11.41;80.10
69570;BME280;56781;42.292;23.146;2023-02-28T12:42:03;95955.53;;;11.37;81.42
69570;BME280;56781;42.292;23.146;2023-02-28T12:44:39;95912.41;;;11.20;80.80
69570;BME280;56781;42.292;23.146;2023-02-28T12:47:14;95937.78;;;11.41;81.28
69570;BME280;56781;42.292;23.146;2023-02-28T12:49:46;95930.19;;;11.16;81.00
69570;BME280;56781;42.292;23.146;2023-02-28T12:52:23;95929.59;;;11.19;82.93
69570;BME280;56781;42.292;23.146;2023-02-28T12:55:00;95932.50;;;11.03;82.05
69570;BME280;56781;42.292;23.146;2023-02-28T13:00:36;95918.97;;;10.95;82.36
69570;BME280;56781;42.292;23.146;2023-02-28T13:03:37;95951.44;;;11.26;80.86
69570;BME280;56781;42.292;23.146;2023-02-28T13:06:33;95944.22;;;11.26;81.49
69570;BME280;56781;42.292;23.146;2023-02-28T13:09:10;95923.09;;;11.06;82.37
69570;BME280;56781;42.292;23.146;2023-02-28T13:11:42;95911.28;;;11.07;81.72
69570;BME280;56781;42.292;23.146;2023-02-28T13:14:25;95919.31;;;11.07;81.55
69570;BME280;56781;42.292;23.146;2023-02-28T13:19:39;95922.88;;;11.02;82.68
69570;BME280;56781;42.292;23.146;2023-02-28T13:22:39;95902.41;;;10.93;83.28
69570;BME280;56781;42.292;23.146;2023-02-28T13:27:57;95906.47;;;10.90;81.97
69570;BME280;56781;42.292;23.146;2023-02-28T13:35:46;95906.63;;;10.61;84.69
69570;BME280;56781;42.292;23.146;2023-02-28T13:38:17;95894.84;;;10.43;84.67
69570;BME280;56781;42.292;23.146;2023-02-28T13:40:48;95906.56;;;10.47;84.25
69570;BME280;56781;42.292;23.146;2023-02-28T13:43:17;95930.38;;;10.68;83.86
69570;BME280;56781;42.292;23.146;2023-02-28T13:46:12;95899.75;;;10.36;83.15
69570;BME280;56781;42.292;23.146;2023-02-28T13:48:40;95910.75;;;10.34;84.78
69570;BME280;56781;42.292;23.146;2023-02-28T13:51:44;95928.22;;;10.51;83.64
69570;BME280;56781;42.292;23.146;2023-02-28T13:54:32;95928.47;;;10.49;83.31
69570;BME280;56781;42.292;23.146;2023-02-28T13:57:42;95937.38;;;10.63;84.21
69570;BME280;56781;42.292;23.146;2023-02-28T14:05:32;95919.88;;;10.52;82.96
69570;BME280;56781;42.292;23.146;2023-02-28T14:08:06;95908.44;;;10.47;82.90
69570;BME280;56781;42.292;23.146;2023-02-28T14:10:42;95929.34;;;10.63;82.94
69570;BME280;56781;42.292;23.146;2023-02-28T14:16:17;95910.31;;;10.27;83.93
69570;BME280;56781;42.292;23.146;2023-02-28T14:18:58;95906.25;;;10.30;85.31
69570;BME280;56781;42.292;23.146;2023-02-28T14:21:34;95921.63;;;10.19;86.00
69570;BME280;56781;42.292;23.146;2023-02-28T14:32:29;95925.41;;;9.70;88.78
69570;BME280;56781;42.292;23.146;2023-02-28T14:37:39;95916.19;;;9.57;87.57
69570;BME280;56781;42.292;23.146;2023-02-28T14:40:15;95923.34;;;9.62;88.28
69570;BME280;56781;42.292;23.146;2023-02-28T14:42:58;95897.13;;;9.40;89.24
69570;BME280;56781;42.292;23.146;2023-02-28T14:45:29;95925.16;;;9.42;88.76
69570;BME280;56781;42.292;23.146;2023-02-28T14:47:58;95921.41;;;9.43;89.66
69570;BME280;56781;42.292;23.146;2023-02-28T14:50:35;95934.53;;;9.40;89.22
69570;BME280;56781;42.292;23.146;2023-02-28T14:53:03;95921.63;;;9.47;90.12
69570;BME280;56781;42.292;23.146;2023-02-28T14:55:36;95915.41;;;9.27;89.34
69570;BME280;56781;42.292;23.146;2023-02-28T14:58:22;95915.34;;;9.32;90.20
69570;BME280;56781;42.292;23.146;2023-02-28T15:00:52;95912.72;;;9.27;90.12
69570;BME280;56781;42.292;23.146;2023-02-28T15:03:30;95917.09;;;9.18;89.73
69570;BME280;56781;42.292;23.146;2023-02-28T15:06:03;95918.41;;;9.21;90.43